createdAt,value
2019-01-21T00:00:00.179Z,42.30
2019-01-21T00:03:17.291Z,32.10
2019-01-21T00:06:43.326Z,29.85
2019-01-21T00:10:26.890Z,32.05
2019-01-21T00:14:10.759Z,33.98
2019-01-21T00:17:29.110Z,27.50
2019-01-21T00:20:48.065Z,37.90
2019-01-21T00:24:06.617Z,26.93
2019-01-21T00:27:24.721Z,27.45
2019-01-21T00:30:43.591Z,35.15
2019-01-21T00:34:02.469Z,26.87
2019-01-21T00:37:21.121Z,34.85
2019-01-21T00:40:40.170Z,41.90
2019-01-21T00:43:58.395Z,31.87
2019-01-21T00:47:17.138Z,37.03
2019-01-21T00:50:36.090Z,37.53
2019-01-21T00:53:54.347Z,26.68
2019-01-21T00:57:13.017Z,29.85
2019-01-21T01:00:32.223Z,35.35
2019-01-21T01:03:51.322Z,34.63
2019-01-21T01:07:10.308Z,38.95
2019-01-21T01:10:29.446Z,36.68
2019-01-21T01:13:48.324Z,26.33
2019-01-21T01:17:07.092Z,31.65
2019-01-21T01:20:25.317Z,35.48
2019-01-21T01:23:42.553Z,31.73
2019-01-21T01:27:08.591Z,29.87
2019-01-21T01:30:34.558Z,27.00
2019-01-21T01:34:00.548Z,35.83
2019-01-21T01:37:26.481Z,25.43
2019-01-21T01:40:52.456Z,26.30
2019-01-21T01:44:18.497Z,32.30
2019-01-21T01:47:45.061Z,32.00
2019-01-21T01:51:29.748Z,24.70
2019-01-21T01:54:55.820Z,28.55
2019-01-21T01:58:21.825Z,33.58
2019-01-21T02:01:48.251Z,34.63
2019-01-21T02:12:49.234Z,28.67
2019-01-21T02:16:15.217Z,29.72
2019-01-21T02:19:51.179Z,24.65
2019-01-21T02:23:09.881Z,20.08
2019-01-21T02:26:55.268Z,21.85
2019-01-21T02:30:40.280Z,28.47
2019-01-21T02:34:25.606Z,21.48
2019-01-21T02:42:11.173Z,23.02
2019-01-21T02:45:42.130Z,18.23
2019-01-21T02:49:27.194Z,20.60
2019-01-21T02:53:12.450Z,28.47
2019-01-21T02:56:57.604Z,24.32
2019-01-21T03:00:42.653Z,24.75
2019-01-21T03:04:15.724Z,20.12
2019-01-21T03:12:12.517Z,23.12
2019-01-21T03:15:42.912Z,18.12
2019-01-21T03:19:01.964Z,26.82
2019-01-21T03:22:20.883Z,28.07
2019-01-21T03:25:39.919Z,21.48
2019-01-21T03:28:58.131Z,21.40
2019-01-21T03:32:16.442Z,19.65
2019-01-21T03:35:34.744Z,22.32
2019-01-21T03:38:53.802Z,23.02
2019-01-21T03:42:12.233Z,22.93
2019-01-21T03:45:43.825Z,17.02
2019-01-21T03:49:28.972Z,22.37
2019-01-21T03:53:14.007Z,28.00
2019-01-21T03:56:42.617Z,21.10
2019-01-21T04:04:35.505Z,18.90
2019-01-21T04:08:20.532Z,20.70
2019-01-21T04:12:05.641Z,22.82
2019-01-21T04:15:50.857Z,16.40
2019-01-21T04:19:09.751Z,17.90
2019-01-21T04:22:27.965Z,27.93
2019-01-21T04:25:46.896Z,25.00
2019-01-21T04:29:06.027Z,16.82
2019-01-21T04:37:20.832Z,24.95
2019-01-21T04:41:06.153Z,26.45
2019-01-21T04:44:51.274Z,19.87
2019-01-21T04:48:36.703Z,30.35
2019-01-21T04:56:45.438Z,31.20
2019-01-21T05:00:30.481Z,25.27
2019-01-21T05:04:15.493Z,20.60
2019-01-21T05:08:00.683Z,28.12
2019-01-21T05:15:59.065Z,22.42
2019-01-21T05:19:18.187Z,29.72
2019-01-21T05:22:37.011Z,21.30
2019-01-21T05:25:56.172Z,24.75
2019-01-21T05:29:14.328Z,23.27
2019-01-21T05:32:32.656Z,27.55
2019-01-21T05:35:51.431Z,30.68
2019-01-21T05:39:10.190Z,29.60
2019-01-21T05:42:28.551Z,24.80
2019-01-21T05:45:47.210Z,24.92
2019-01-21T05:53:42.250Z,27.32
2019-01-21T05:57:27.333Z,23.73
2019-01-21T06:01:12.661Z,24.27
2019-01-21T06:04:43.051Z,22.32
2019-01-21T06:08:28.196Z,21.05
2019-01-21T06:12:13.207Z,31.87
2019-01-21T06:15:58.219Z,41.95
2019-01-21T06:19:17.172Z,26.82
2019-01-21T06:22:35.343Z,35.75
2019-01-21T06:25:54.433Z,40.92
2019-01-21T06:29:12.784Z,29.90
2019-01-21T06:32:31.121Z,27.55
2019-01-21T06:35:49.952Z,43.63
2019-01-21T06:39:35.065Z,24.92
2019-01-21T06:43:20.172Z,30.97
2019-01-21T06:51:19.817Z,33.63
2019-01-21T06:55:04.868Z,34.45
2019-01-21T06:58:50.087Z,33.40
2019-01-21T07:02:35.251Z,23.50
2019-01-21T07:06:20.330Z,29.85
2019-01-21T07:10:05.376Z,30.35
2019-01-21T07:13:50.585Z,24.05
2019-01-21T07:17:09.574Z,28.85
2019-01-21T07:20:28.595Z,30.40
2019-01-21T07:23:47.471Z,24.47
2019-01-21T07:27:06.500Z,22.95
2019-01-21T07:30:25.429Z,21.80
2019-01-21T07:33:43.727Z,29.23
2019-01-21T07:37:03.887Z,27.93
2019-01-21T07:40:22.890Z,30.32
2019-01-21T07:43:41.755Z,41.63
2019-01-21T07:46:59.809Z,34.55
2019-01-21T07:50:18.227Z,29.82
2019-01-21T07:53:37.094Z,29.20
2019-01-21T07:56:56.160Z,29.18
2019-01-21T08:00:14.319Z,26.35
2019-01-21T08:03:32.465Z,27.17
2019-01-21T08:06:50.572Z,24.82
2019-01-21T08:10:09.464Z,29.07
2019-01-21T08:13:28.379Z,27.07
2019-01-21T08:16:47.178Z,26.52
2019-01-21T08:20:05.359Z,34.90
2019-01-21T08:23:24.149Z,35.63
2019-01-21T08:31:17.159Z,31.57
2019-01-21T08:35:02.157Z,35.92
2019-01-21T08:38:47.166Z,30.82
2019-01-21T08:42:32.221Z,36.60
2019-01-21T08:46:21.375Z,35.38
2019-01-21T08:50:21.447Z,29.90
2019-01-21T08:54:06.456Z,38.58
2019-01-21T08:57:51.369Z,32.17
2019-01-21T09:01:36.302Z,31.33
2019-01-21T09:05:21.247Z,38.80
2019-01-21T09:13:14.117Z,40.10
2019-01-21T09:16:59.089Z,35.20
2019-01-21T09:20:17.765Z,39.63
2019-01-21T09:23:36.688Z,41.20
2019-01-21T09:26:54.749Z,31.80
2019-01-21T09:30:13.703Z,38.13
2019-01-21T09:33:32.066Z,45.35
2019-01-21T09:36:50.308Z,42.67
2019-01-21T09:40:09.306Z,37.85
2019-01-21T09:43:28.335Z,42.58
2019-01-21T09:46:51.133Z,32.70
2019-01-21T09:50:09.376Z,37.60
2019-01-21T09:53:27.659Z,35.60
2019-01-21T09:56:46.438Z,34.23
2019-01-21T10:00:05.465Z,35.08
2019-01-21T10:03:23.819Z,39.75
2019-01-21T10:11:03.334Z,46.77
2019-01-21T10:15:02.445Z,42.90
2019-01-21T10:18:21.081Z,40.05
2019-01-21T10:21:39.385Z,49.95
2019-01-21T10:24:58.307Z,28.40
2019-01-21T10:28:17.195Z,40.83
2019-01-21T10:31:36.127Z,33.38
2019-01-21T10:34:54.168Z,42.50
2019-01-21T10:38:12.672Z,40.28
2019-01-21T10:41:30.894Z,28.85
2019-01-21T10:44:49.287Z,50.90
2019-01-21T10:48:08.339Z,41.30
2019-01-21T10:55:28.134Z,43.05
2019-01-21T10:59:13.202Z,32.78
2019-01-21T11:07:16.896Z,42.13
2019-01-21T11:11:01.901Z,36.85
2019-01-21T11:14:46.975Z,35.23
2019-01-21T11:18:05.811Z,30.43
2019-01-21T11:21:24.030Z,36.95
2019-01-21T11:24:43.091Z,34.70
2019-01-21T11:28:02.015Z,28.23
2019-01-21T11:31:23.592Z,25.82
2019-01-21T11:34:41.797Z,24.87
2019-01-21T11:37:59.995Z,30.80
2019-01-21T11:41:15.775Z,28.50
2019-01-21T11:44:32.359Z,29.87
2019-01-21T11:47:48.835Z,26.40
2019-01-21T11:51:07.830Z,33.33
2019-01-21T11:54:27.652Z,35.68
2019-01-21T11:57:45.865Z,33.20
2019-01-21T12:01:04.173Z,29.37
2019-01-21T12:04:22.329Z,35.52
2019-01-21T12:07:41.350Z,33.78
2019-01-21T12:11:00.318Z,39.35
2019-01-21T12:14:19.118Z,30.37
2019-01-21T12:18:04.372Z,32.00
2019-01-21T12:21:49.493Z,32.08
2019-01-21T12:25:34.452Z,17.77
2019-01-21T12:29:20.450Z,19.80
2019-01-21T12:33:05.410Z,21.65
2019-01-21T12:44:39.494Z,17.17
2019-01-21T12:48:24.417Z,16.85
2019-01-21T13:00:21.243Z,16.97
2019-01-21T13:04:06.227Z,16.97
2019-01-21T13:07:27.648Z,15.80
2019-01-21T13:10:46.434Z,23.80
2019-01-21T13:14:04.534Z,17.85
2019-01-21T13:17:23.353Z,15.15
2019-01-21T13:20:59.415Z,16.97
2019-01-21T13:24:44.385Z,17.10
2019-01-21T13:28:30.331Z,15.60
2019-01-21T13:36:38.190Z,17.77
2019-01-21T13:40:23.145Z,28.32
2019-01-21T13:44:08.185Z,19.77
2019-01-21T13:47:53.246Z,19.05
2019-01-21T13:51:38.236Z,22.65
2019-01-21T13:55:23.108Z,22.58
2019-01-21T13:59:08.087Z,21.27
2019-01-21T14:02:53.089Z,20.27
2019-01-21T14:06:11.597Z,30.45
2019-01-21T14:09:30.291Z,15.98
2019-01-21T14:12:48.449Z,17.50
2019-01-21T14:16:07.501Z,24.82
2019-01-21T14:19:26.338Z,20.68
2019-01-21T14:22:44.776Z,20.05
2019-01-21T14:26:02.998Z,27.17
2019-01-21T14:29:21.418Z,19.65
2019-01-21T14:32:40.164Z,24.23
2019-01-21T14:36:00.409Z,19.07
2019-01-21T14:39:19.095Z,18.12
2019-01-21T14:42:38.092Z,17.40
2019-01-21T14:45:56.422Z,22.48
2019-01-21T14:49:14.664Z,19.02
2019-01-21T14:52:32.933Z,25.52
2019-01-21T14:55:51.580Z,22.02
2019-01-21T14:59:09.702Z,24.43
2019-01-21T15:02:28.813Z,16.60
2019-01-21T15:05:46.996Z,24.05
2019-01-21T15:09:05.872Z,19.62
2019-01-21T15:12:24.123Z,24.10
2019-01-21T15:15:43.221Z,25.72
2019-01-21T15:19:08.281Z,34.23
2019-01-21T15:22:53.332Z,30.25
2019-01-21T15:26:38.390Z,29.32
2019-01-21T15:34:15.716Z,28.73
2019-01-21T15:38:00.678Z,18.80
2019-01-21T15:45:59.620Z,21.57
2019-01-21T15:49:44.626Z,22.85
2019-01-21T15:53:29.674Z,28.17
2019-01-21T15:57:14.618Z,33.10
2019-01-21T16:00:59.705Z,36.23
2019-01-21T16:04:44.743Z,26.95
2019-01-21T16:16:45.922Z,35.73
2019-01-21T16:24:23.402Z,24.80
2019-01-21T16:27:58.803Z,27.52
2019-01-21T16:32:01.412Z,30.72
2019-01-21T16:35:46.433Z,35.70
2019-01-21T16:47:19.159Z,32.55
2019-01-21T16:51:02.282Z,31.93
2019-01-21T16:54:28.174Z,26.87
2019-01-21T16:57:54.115Z,24.02
2019-01-21T17:01:20.058Z,29.65
2019-01-21T17:08:23.880Z,27.02
2019-01-21T17:11:42.024Z,29.27
2019-01-21T17:15:01.014Z,25.48
2019-01-21T17:18:20.056Z,27.42
2019-01-21T17:21:38.335Z,27.87
2019-01-21T17:36:27.786Z,31.30
2019-01-21T17:39:53.901Z,30.25
2019-01-21T17:43:19.884Z,26.95
2019-01-21T17:47:03.462Z,19.98
2019-01-21T17:50:29.396Z,28.23
2019-01-21T17:53:55.335Z,22.82
2019-01-21T17:57:38.878Z,22.30
2019-01-21T18:01:04.790Z,26.62
2019-01-21T18:08:14.428Z,18.50
2019-01-21T18:11:32.518Z,26.87
2019-01-21T18:14:50.716Z,19.17
2019-01-21T18:18:08.948Z,19.67
2019-01-21T18:21:28.033Z,23.20
2019-01-21T18:24:47.435Z,20.85
2019-01-21T18:28:06.080Z,19.75
2019-01-21T18:31:24.267Z,20.62
2019-01-21T18:34:43.191Z,26.17
2019-01-21T18:38:02.155Z,23.45
2019-01-21T18:41:21.074Z,24.05
2019-01-21T18:44:39.273Z,22.15
2019-01-21T18:47:58.296Z,33.28
2019-01-21T18:51:15.355Z,21.90
2019-01-21T18:54:41.424Z,28.80
2019-01-21T19:01:52.308Z,26.97
2019-01-21T19:05:18.251Z,26.25
2019-01-21T19:08:54.572Z,19.45
2019-01-21T19:12:13.520Z,30.02
2019-01-21T19:15:32.350Z,33.53
2019-01-21T19:18:50.402Z,26.65
2019-01-21T19:22:08.601Z,23.02
2019-01-21T19:25:27.636Z,25.75
2019-01-21T19:28:46.220Z,25.27
2019-01-21T19:32:05.131Z,27.65
2019-01-21T19:35:24.527Z,25.10
2019-01-21T19:38:43.181Z,22.50
2019-01-21T19:42:02.132Z,23.83
2019-01-21T19:45:21.055Z,22.52
2019-01-21T19:48:40.008Z,29.18
2019-01-21T19:52:00.468Z,21.27
2019-01-21T19:55:18.760Z,23.42
2019-01-21T19:58:37.685Z,31.48
2019-01-21T20:01:56.721Z,20.35
2019-01-21T20:05:15.809Z,23.52
2019-01-21T20:08:34.478Z,18.98
2019-01-21T20:11:52.785Z,25.95
2019-01-21T20:15:11.681Z,34.85
2019-01-21T20:18:30.646Z,25.25
2019-01-21T20:21:49.758Z,21.07
2019-01-21T20:25:08.732Z,36.50
2019-01-21T20:28:27.651Z,23.62
2019-01-21T20:31:46.553Z,31.55
2019-01-21T20:35:04.765Z,28.17
2019-01-21T20:38:23.704Z,34.10
2019-01-21T20:41:41.912Z,20.10
2019-01-21T20:45:00.885Z,30.72
2019-01-21T20:48:19.134Z,21.57
2019-01-21T20:51:37.282Z,22.42
2019-01-21T20:54:57.686Z,18.82
2019-01-21T20:58:16.361Z,25.90
2019-01-21T21:01:35.237Z,17.90
2019-01-21T21:04:52.550Z,25.48
2019-01-21T21:08:10.870Z,24.67
2019-01-21T21:11:29.667Z,27.55
2019-01-21T21:14:47.897Z,22.30
2019-01-21T21:18:06.713Z,24.35
2019-01-21T21:21:25.691Z,24.80
2019-01-21T21:24:45.140Z,29.10
2019-01-21T21:28:03.436Z,24.27
2019-01-21T21:31:21.863Z,26.35
2019-01-21T21:34:40.153Z,24.12
2019-01-21T21:37:59.109Z,25.12
2019-01-21T21:41:20.793Z,25.52
2019-01-21T21:44:39.639Z,25.15
2019-01-21T21:48:01.008Z,23.00
2019-01-21T21:51:19.241Z,25.50
2019-01-21T21:54:38.042Z,17.52
2019-01-21T21:57:56.566Z,14.00
2019-01-21T22:01:16.016Z,18.92
2019-01-21T22:04:35.210Z,25.80
2019-01-21T22:07:54.230Z,15.93
2019-01-21T22:11:12.928Z,19.60
2019-01-21T22:14:31.435Z,33.42
2019-01-21T22:17:49.654Z,24.82
2019-01-21T22:21:07.959Z,24.87
2019-01-21T22:24:27.043Z,19.02
2019-01-21T22:27:45.499Z,23.52
2019-01-21T22:31:02.682Z,22.48
2019-01-21T22:34:28.685Z,18.45
2019-01-21T22:37:54.845Z,16.80
2019-01-21T22:41:21.118Z,26.73
2019-01-21T22:44:47.264Z,23.67
2019-01-21T22:48:13.250Z,15.28
2019-01-21T22:51:39.316Z,21.55
2019-01-21T22:54:56.566Z,13.38
2019-01-21T22:58:22.607Z,17.35
2019-01-21T23:05:37.344Z,20.75
2019-01-21T23:13:07.790Z,15.03
2019-01-21T23:16:52.802Z,22.22
2019-01-21T23:20:18.811Z,31.30
2019-01-21T23:23:44.912Z,18.07
2019-01-21T23:27:28.551Z,27.90
2019-01-21T23:31:13.776Z,21.52
2019-01-21T23:34:44.162Z,22.55
2019-01-21T23:38:25.125Z,13.62
2019-01-21T23:41:51.154Z,19.75
2019-01-21T23:45:17.267Z,21.45
2019-01-21T23:48:43.319Z,19.52
2019-01-21T23:55:53.901Z,13.50
2019-01-21T23:59:12.212Z,21.07
